Time;durP1;ratioP1;P1;durP2;ratioP2;P2;SDS_P1;SDS_P2;PMS_P1;PMS_P2;Temp;Humidity;BMP_temperature;BMP_pressure;BME280_temperature;BME280_humidity;BME280_pressure;Samples;Min_cycle;Max_cycle;Signal;HPM_P1;HPM_P2
2021/03/18 00:01:44;;;;;;;21.85;12.90;;;179.80;1689.60;;;;;;5037313;28;20494;-67
2021/03/18 00:04:11;;;;;;;18.90;12.73;;;179.80;1689.60;;;;;;5019370;28;20029;-67
2021/03/18 00:06:38;;;;;;;19.45;12.55;;;179.80;1689.60;;;;;;5037146;28;20026;-69
2021/03/18 00:09:06;;;;;;;21.65;12.35;;;179.80;1689.60;;;;;;5037440;28;20032;-67
2021/03/18 00:11:32;;;;;;;20.48;12.35;;;179.80;1689.60;;;;;;5037315;28;20030;-67
2021/03/18 00:13:58;;;;;;;22.25;14.30;;;179.80;1689.60;;;;;;5019503;28;20460;-67
2021/03/18 00:16:24;;;;;;;21.20;13.15;;;179.80;1689.60;;;;;;5019506;28;20029;-67
2021/03/18 00:18:52;;;;;;;20.92;12.38;;;179.60;1689.60;;;;;;5037276;28;20029;-76
2021/03/18 00:21:19;;;;;;;20.92;12.50;;;179.70;1689.60;;;;;;5037299;28;20037;-67
2021/03/18 00:23:49;;;;;;;21.80;13.02;;;179.70;1689.60;;;;;;5037011;28;20037;-72
2021/03/18 00:26:21;;;;;;;18.25;11.75;;;179.70;1664.00;;;;;;5036632;28;20076;-73
2021/03/18 00:28:49;;;;;;;27.40;12.80;;;179.70;1664.00;;;;;;5036766;28;20029;-68
2021/03/18 00:31:18;;;;;;;20.17;13.02;;;179.60;1664.00;;;;;;5036585;28;20459;-72
2021/03/18 00:33:44;;;;;;;22.83;13.50;;;179.70;1664.00;;;;;;5036462;28;20030;-68
2021/03/18 00:36:10;;;;;;;28.17;14.43;;;179.60;1664.00;;;;;;5036630;28;20024;-77
2021/03/18 00:38:35;;;;;;;23.15;13.50;;;179.60;1689.60;;;;;;5036908;28;20021;-66
2021/03/18 00:41:05;;;;;;;21.45;13.32;;;179.60;1689.60;;;;;;5036894;28;20039;-74
2021/03/18 00:43:31;;;;;;;23.92;14.25;;;179.50;1689.60;;;;;;5036232;28;20021;-67
2021/03/18 00:45:57;;;;;;;23.58;15.00;;;179.50;1715.20;;;;;;5037265;28;20029;-73
2021/03/18 00:48:24;;;;;;;25.80;15.65;;;179.50;1715.20;;;;;;5036438;28;20116;-67
2021/03/18 00:50:55;;;;;;;26.40;14.85;;;179.50;1715.20;;;;;;5036648;28;20022;-68
2021/03/18 00:53:31;;;;;;;22.30;13.50;;;179.50;1715.20;;;;;;5036508;28;20067;-69
2021/03/18 00:55:58;;;;;;;22.20;14.13;;;179.50;1715.20;;;;;;5036435;28;20026;-72
2021/03/18 00:58:24;;;;;;;33.92;14.43;;;179.50;1715.20;;;;;;5036350;28;20030;-68
2021/03/18 01:00:55;;;;;;;25.58;14.60;;;179.50;1715.20;;;;;;5036083;28;20108;-68
2021/03/18 01:03:22;;;;;;;28.17;15.48;;;179.50;1715.20;;;;;;5035238;28;20029;-72
2021/03/18 01:05:56;;;;;;;27.80;15.27;;;179.50;1715.20;;;;;;5036228;28;20060;-67
2021/03/18 01:08:25;;;;;;;27.85;15.13;;;179.40;1689.60;;;;;;5036030;28;20077;-67
2021/03/18 01:11:05;;;;;;;30.67;15.80;;;179.50;1715.20;;;;;;5036191;28;20040;-68
2021/03/18 01:13:31;;;;;;;31.80;14.80;;;179.40;1715.20;;;;;;5036119;28;20394;-67
2021/03/18 01:16:04;;;;;;;25.10;14.88;;;179.40;1715.20;;;;;;5035917;28;20029;-73
2021/03/18 01:18:47;;;;;;;23.58;13.77;;;179.40;1689.60;;;;;;5036112;28;20021;-73
2021/03/18 01:21:14;;;;;;;23.30;12.98;;;179.50;1689.60;;;;;;5036082;28;20072;-73
2021/03/18 01:23:40;;;;;;;24.85;13.50;;;179.40;1689.60;;;;;;5036129;28;20410;-73
2021/03/18 01:26:07;;;;;;;19.92;11.98;;;179.40;1689.60;;;;;;5035821;28;20099;-67
2021/03/18 01:28:34;;;;;;;19.10;11.80;;;179.40;1689.60;;;;;;5035791;28;20033;-68
2021/03/18 01:31:01;;;;;;;20.00;12.18;;;179.40;1664.00;;;;;;5035639;28;20017;-71
2021/03/18 01:33:27;;;;;;;19.17;11.98;;;179.40;1689.60;;;;;;5035860;28;20411;-68
2021/03/18 01:35:53;;;;;;;21.50;13.00;;;179.30;1689.60;;;;;;5035862;28;20032;-69
2021/03/18 01:38:19;;;;;;;21.08;12.90;;;179.30;1664.00;;;;;;5035366;28;20029;-68
2021/03/18 01:40:46;;;;;;;25.27;14.00;;;179.40;1689.60;;;;;;5035855;28;20026;-68
2021/03/18 01:43:12;;;;;;;22.90;12.73;;;179.30;1664.00;;;;;;5035569;28;20033;-68
2021/03/18 01:45:38;;;;;;;20.10;12.20;;;179.30;1664.00;;;;;;5035616;28;20087;-68
2021/03/18 01:48:05;;;;;;;21.08;12.88;;;179.30;1664.00;;;;;;5017476;28;20217;-72
2021/03/18 01:50:34;;;;;;;21.08;12.60;;;179.30;1689.60;;;;;;5035480;28;20029;-68
2021/03/18 01:53:00;;;;;;;24.00;13.90;;;179.30;1664.00;;;;;;5035494;28;20476;-74
2021/03/18 01:55:38;;;;;;;22.27;13.80;;;179.20;1689.60;;;;;;5035247;28;20471;-68
2021/03/18 01:58:06;;;;;;;23.80;13.10;;;179.30;1664.00;;;;;;5035132;28;20053;-69
2021/03/18 02:00:34;;;;;;;21.40;12.65;;;179.20;1689.60;;;;;;5034954;28;20029;-69
2021/03/18 02:03:00;;;;;;;20.77;11.73;;;179.30;1689.60;;;;;;5035122;28;20033;-73
2021/03/18 02:05:27;;;;;;;19.83;11.65;;;179.20;1689.60;;;;;;5035120;28;20029;-69
2021/03/18 02:07:54;;;;;;;17.13;11.52;;;179.20;1689.60;;;;;;5034661;28;20556;-74
2021/03/18 02:10:23;;;;;;;17.77;11.32;;;179.20;1689.60;;;;;;5035078;28;20032;-69
2021/03/18 02:12:49;;;;;;;16.13;10.68;;;179.20;1689.60;;;;;;5034908;28;20123;-74
2021/03/18 02:15:16;;;;;;;16.83;11.30;;;179.20;1689.60;;;;;;5034673;28;20025;-68
2021/03/18 02:17:57;;;;;;;18.83;11.38;;;179.20;1689.60;;;;;;5035159;28;20033;-71
2021/03/18 02:21:00;;;;;;;16.70;10.95;;;179.20;1689.60;;;;;;5034979;28;20038;-68
2021/03/18 02:24:00;;;;;;;17.52;11.25;;;179.20;1689.60;;;;;;5034865;28;20025;-75
2021/03/18 02:27:03;;;;;;;15.15;10.52;;;154.50;1689.60;;;;;;5034448;28;20049;-75
2021/03/18 02:29:40;;;;;;;20.58;11.30;;;154.50;1689.60;;;;;;5034755;28;20100;-75
2021/03/18 02:32:43;;;;;;;17.88;10.88;;;154.50;1689.60;;;;;;5034670;28;20022;-69
2021/03/18 02:35:27;;;;;;;16.50;11.55;;;154.50;1689.60;;;;;;5034475;28;20022;-75
2021/03/18 02:37:59;;;;;;;18.42;10.90;;;154.50;1715.20;;;;;;5034609;28;20025;-68
2021/03/18 02:40:25;;;;;;;16.75;10.68;;;154.50;1689.60;;;;;;5034573;28;20048;-71
2021/03/18 02:43:03;;;;;;;18.67;11.18;;;154.50;1689.60;;;;;;5034276;28;20029;-71
2021/03/18 02:45:33;;;;;;;17.80;11.88;;;154.50;1715.20;;;;;;5034467;28;20364;-69
2021/03/18 02:48:01;;;;;;;17.10;11.73;;;154.50;1715.20;;;;;;5034316;28;20083;-75
2021/03/18 02:50:28;;;;;;;16.38;11.30;;;154.50;1715.20;;;;;;5034412;28;20029;-76
2021/03/18 02:52:55;;;;;;;17.15;11.10;;;154.40;1715.20;;;;;;5034346;28;20030;-68
2021/03/18 02:55:23;;;;;;;16.63;11.18;;;154.40;1740.80;;;;;;5034253;28;20029;-75
2021/03/18 02:57:50;;;;;;;19.48;11.93;;;154.50;1715.20;;;;;;5034536;28;20021;-68
2021/03/18 03:00:18;;;;;;;18.70;11.85;;;154.50;1715.20;;;;;;5034068;28;20109;-67
2021/03/18 03:02:44;;;;;;;17.85;11.25;;;154.50;1715.20;;;;;;5034236;28;20396;-68
2021/03/18 03:05:13;;;;;;;20.33;11.20;;;154.50;1715.20;;;;;;5034102;28;20104;-68
2021/03/18 03:07:41;;;;;;;19.25;12.38;;;154.50;1715.20;;;;;;5033878;28;20513;-67
2021/03/18 03:10:07;;;;;;;17.92;11.35;;;154.50;1715.20;;;;;;5034232;28;20025;-74
2021/03/18 03:12:35;;;;;;;18.02;11.85;;;154.50;1715.20;;;;;;5033878;28;20040;-74
2021/03/18 03:15:02;;;;;;;21.20;13.02;;;154.50;1715.20;;;;;;5033748;28;20036;-73
2021/03/18 03:17:28;;;;;;;24.42;14.30;;;154.50;1715.20;;;;;;5034047;28;20082;-68
2021/03/18 03:19:58;;;;;;;23.70;14.80;;;154.50;1715.20;;;;;;5033921;28;20466;-72
2021/03/18 03:22:24;;;;;;;22.70;13.70;;;154.50;1740.80;;;;;;5034023;28;20030;-68
2021/03/18 03:24:51;;;;;;;24.88;14.85;;;154.50;1715.20;;;;;;5033315;28;20050;-70
2021/03/18 03:27:17;;;;;;;25.30;14.60;;;154.50;1715.20;;;;;;5032931;28;20037;-74
2021/03/18 03:29:45;;;;;;;31.27;17.02;;;179.20;1715.20;;;;;;5033698;28;20021;-68
2021/03/18 03:32:12;;;;;;;35.25;18.98;;;179.20;1740.80;;;;;;5033612;28;20079;-68
2021/03/18 03:34:40;;;;;;;29.98;16.85;;;179.20;1740.80;;;;;;5033862;28;20095;-67
2021/03/18 03:37:08;;;;;;;27.23;16.08;;;179.20;1740.80;;;;;;5033401;28;20414;-73
2021/03/18 03:39:34;;;;;;;24.05;14.18;;;179.20;1740.80;;;;;;5033760;28;20029;-73
2021/03/18 03:42:06;;;;;;;22.63;13.27;;;179.20;1740.80;;;;;;5033758;28;20463;-74
2021/03/18 03:44:31;;;;;;;21.23;13.80;;;179.30;1740.80;;;;;;5033671;28;20189;-76
2021/03/18 03:46:57;;;;;;;25.83;15.32;;;179.20;1740.80;;;;;;5033519;28;20518;-75
2021/03/18 03:49:23;;;;;;;29.13;15.35;;;179.20;1740.80;;;;;;5033536;28;20053;-68
2021/03/18 03:52:12;;;;;;;26.95;15.35;;;179.20;1740.80;;;;;;5033582;28;20109;-74
2021/03/18 03:54:42;;;;;;;22.23;13.52;;;179.30;1740.80;;;;;;5034015;28;20116;-83
2021/03/18 03:57:26;;;;;;;22.05;13.15;;;179.20;1740.80;;;;;;5034139;28;20067;-83
2021/03/18 03:59:55;;;;;;;18.45;12.98;;;179.30;1740.80;;;;;;5033413;28;20120;-83
2021/03/18 04:02:24;;;;;;;21.58;13.55;;;179.20;1740.80;;;;;;5033537;28;20029;-74
2021/03/18 04:04:50;;;;;;;21.90;13.80;;;179.20;1740.80;;;;;;5033562;28;20021;-67
2021/03/18 04:07:26;;;;;;;19.42;12.70;;;179.20;1740.80;;;;;;5033165;28;20124;-68
2021/03/18 04:09:53;;;;;;;20.30;13.60;;;179.20;1740.80;;;;;;5033321;28;20248;-74
2021/03/18 04:12:23;;;;;;;29.80;15.00;;;179.20;1740.80;;;;;;5033216;28;20033;-65
2021/03/18 04:15:01;;;;;;;21.73;14.07;;;179.20;1766.40;;;;;;5033192;28;20025;-65
2021/03/18 04:17:30;;;;;;;18.88;12.40;;;179.20;1740.80;;;;;;5033201;28;20037;-66
2021/03/18 04:19:58;;;;;;;19.83;13.77;;;179.20;1740.80;;;;;;5033240;28;20094;-73
2021/03/18 04:22:28;;;;;;;20.85;13.10;;;179.20;1740.80;;;;;;5033365;28;20021;-65
2021/03/18 04:24:55;;;;;;;21.58;12.57;;;179.20;1740.80;;;;;;5033130;28;20120;-65
2021/03/18 04:27:21;;;;;;;20.38;13.38;;;179.20;1740.80;;;;;;5033184;28;20041;-66
2021/03/18 04:29:48;;;;;;;18.85;11.93;;;179.20;1740.80;;;;;;5033184;28;20490;-66
2021/03/18 04:32:15;;;;;;;24.15;13.43;;;154.50;1740.80;;;;;;5033266;28;20033;-65
2021/03/18 04:34:44;;;;;;;21.45;13.25;;;154.50;1740.80;;;;;;5033415;28;20032;-65
2021/03/18 04:37:11;;;;;;;21.08;13.98;;;154.50;1766.40;;;;;;5034318;28;20025;-65
2021/03/18 04:39:39;;;;;;;21.70;12.93;;;154.50;1740.80;;;;;;5037048;28;20049;-66
2021/03/18 04:42:06;;;;;;;21.30;12.65;;;154.50;1740.80;;;;;;5036733;28;20100;-65
2021/03/18 04:44:33;;;;;;;21.05;12.85;;;154.50;1740.80;;;;;;5036540;28;20026;-73
2021/03/18 04:47:01;;;;;;;20.70;13.02;;;154.50;1740.80;;;;;;5036538;28;20056;-66
2021/03/18 04:49:27;;;;;;;19.55;11.98;;;154.50;1740.80;;;;;;5036561;28;20030;-66
2021/03/18 04:51:54;;;;;;;21.48;12.75;;;154.50;1766.40;;;;;;5036598;28;20030;-66
2021/03/18 04:54:21;;;;;;;23.85;13.05;;;154.50;1766.40;;;;;;5036737;28;20113;-71
2021/03/18 04:56:48;;;;;;;22.08;14.32;;;154.50;1766.40;;;;;;5036377;28;20045;-66
2021/03/18 04:59:16;;;;;;;21.55;13.82;;;154.50;1766.40;;;;;;5036264;28;20517;-66
2021/03/18 05:01:48;;;;;;;23.25;14.48;;;154.40;1766.40;;;;;;5036242;28;20029;-66
2021/03/18 05:04:19;;;;;;;26.25;16.40;;;154.50;1766.40;;;;;;5036121;28;20406;-66
2021/03/18 05:06:54;;;;;;;32.45;18.00;;;154.50;1766.40;;;;;;5035976;28;20566;-66
2021/03/18 05:09:23;;;;;;;33.75;21.23;;;154.50;1766.40;;;;;;5036084;28;20027;-66
2021/03/18 05:11:54;;;;;;;36.08;21.27;;;154.50;1766.40;;;;;;5036050;28;20033;-67
2021/03/18 05:14:20;;;;;;;30.55;20.80;;;154.50;1766.40;;;;;;5035899;28;20486;-66
2021/03/18 05:16:49;;;;;;;40.47;22.92;;;154.50;1766.40;;;;;;5036021;28;20021;-66
2021/03/18 05:19:15;;;;;;;62.80;32.28;;;154.50;1766.40;;;;;;5036065;28;20400;-73
2021/03/18 05:21:44;;;;;;;46.75;26.45;;;154.50;1766.40;;;;;;5035977;28;20025;-65
2021/03/18 05:24:11;;;;;;;33.28;20.40;;;154.50;1740.80;;;;;;5035814;28;20525;-66
2021/03/18 05:26:38;;;;;;;30.50;18.13;;;154.50;1766.40;;;;;;5035537;28;20087;-65
2021/03/18 05:29:05;;;;;;;27.08;16.70;;;154.50;1766.40;;;;;;5035798;28;20371;-66
2021/03/18 05:31:32;;;;;;;23.10;14.85;;;154.50;1766.40;;;;;;5035687;28;20026;-66
2021/03/18 05:33:58;;;;;;;18.83;12.40;;;154.50;1766.40;;;;;;5035780;28;20036;-73
2021/03/18 05:36:23;;;;;;;23.73;13.48;;;154.50;1766.40;;;;;;5035623;28;20013;-72
2021/03/18 05:38:49;;;;;;;20.95;12.77;;;154.50;1792.00;;;;;;5035372;28;20021;-66
2021/03/18 05:41:15;;;;;;;22.98;14.20;;;154.50;1792.00;;;;;;5035371;28;20049;-65
2021/03/18 05:43:42;;;;;;;22.95;13.85;;;154.50;1792.00;;;;;;5035397;28;20045;-65
2021/03/18 05:46:08;;;;;;;22.33;13.55;;;179.20;1792.00;;;;;;5035499;28;20030;-65
2021/03/18 05:48:34;;;;;;;21.02;12.90;;;179.20;1792.00;;;;;;5034877;28;20087;-65
2021/03/18 05:51:01;;;;;;;21.27;14.25;;;179.20;1766.40;;;;;;5035550;28;20021;-65
2021/03/18 05:53:28;;;;;;;21.25;13.73;;;179.20;1792.00;;;;;;5035364;28;20022;-64
2021/03/18 05:55:56;;;;;;;21.92;13.73;;;179.20;1766.40;;;;;;5035106;28;20467;-65
2021/03/18 05:58:23;;;;;;;20.27;13.02;;;179.20;1766.40;;;;;;5035290;28;20414;-71
2021/03/18 06:00:50;;;;;;;21.35;12.88;;;179.20;1792.00;;;;;;5035876;28;20036;-72
2021/03/18 06:03:20;;;;;;;21.40;12.60;;;179.20;1792.00;;;;;;5035150;28;20057;-64
2021/03/18 06:05:47;;;;;;;21.67;13.93;;;179.20;1792.00;;;;;;5035140;28;20026;-64
2021/03/18 06:08:13;;;;;;;19.05;11.95;;;179.20;1792.00;;;;;;5034789;28;20049;-65
2021/03/18 06:10:39;;;;;;;16.65;12.48;;;179.20;1792.00;;;;;;5035064;28;20045;-64
2021/03/18 06:13:05;;;;;;;23.70;12.85;;;179.20;1792.00;;;;;;5035041;28;20029;-64
2021/03/18 06:15:31;;;;;;;17.88;12.20;;;179.20;1792.00;;;;;;5034798;28;20030;-64
2021/03/18 06:17:57;;;;;;;19.67;12.50;;;179.20;1792.00;;;;;;5034863;28;20033;-65
2021/03/18 06:20:27;;;;;;;20.60;12.25;;;179.20;1792.00;;;;;;5034891;28;20375;-64
2021/03/18 06:22:53;;;;;;;18.30;12.25;;;179.30;1817.60;;;;;;5034055;28;20071;-71
2021/03/18 06:25:29;;;;;;;19.77;12.70;;;179.30;1817.60;;;;;;5034705;28;20054;-66
2021/03/18 06:28:13;;;;;;;21.90;12.38;;;179.30;1817.60;;;;;;5034497;28;20047;-71
2021/03/18 06:30:40;;;;;;;16.58;12.05;;;179.30;1817.60;;;;;;5034670;28;20021;-64
2021/03/18 06:33:24;;;;;;;17.83;11.48;;;179.30;1817.60;;;;;;5034523;28;20026;-64
2021/03/18 06:35:49;;;;;;;15.40;11.63;;;179.30;1843.20;;;;;;5034632;28;20029;-70
2021/03/18 06:38:15;;;;;;;19.10;12.02;;;179.30;1843.20;;;;;;5034217;28;20052;-72
2021/03/18 06:40:46;;;;;;;22.80;11.60;;;179.30;1817.60;;;;;;5034351;28;20459;-67
2021/03/18 06:43:12;;;;;;;17.35;10.18;;;179.30;1817.60;;;;;;5034275;28;20049;-65
2021/03/18 06:45:42;;;;;;;17.17;10.30;;;179.30;1843.20;;;;;;5034538;28;20101;-64
2021/03/18 06:48:11;;;;;;;15.95;10.32;;;179.30;1817.60;;;;;;5034200;28;20124;-64
2021/03/18 06:50:48;;;;;;;15.88;11.48;;;179.30;1843.20;;;;;;5034139;28;20513;-64
2021/03/18 06:53:25;;;;;;;18.80;12.70;;;179.40;1843.20;;;;;;5034208;28;20112;-65
2021/03/18 06:55:52;;;;;;;20.10;13.43;;;179.40;1843.20;;;;;;5034072;28;20029;-65
2021/03/18 06:58:26;;;;;;;21.60;13.52;;;179.40;1868.80;;;;;;5033829;28;20029;-66
2021/03/18 07:00:57;;;;;;;21.87;13.63;;;179.40;1843.20;;;;;;5033136;28;20104;-64
2021/03/18 07:03:37;;;;;;;23.73;14.50;;;179.40;1843.20;;;;;;5034148;28;20074;-64
2021/03/18 07:06:08;;;;;;;23.20;14.43;;;179.50;1843.20;;;;;;5033965;28;20052;-66
2021/03/18 07:08:39;;;;;;;23.27;14.48;;;179.50;1843.20;;;;;;5034444;28;20108;-64
2021/03/18 07:11:19;;;;;;;35.45;19.27;;;179.50;1843.20;;;;;;5033527;28;20100;-65
2021/03/18 07:13:46;;;;;;;39.25;22.80;;;179.50;1817.60;;;;;;5033567;28;20029;-64
2021/03/18 07:16:12;;;;;;;32.08;19.63;;;179.50;1843.20;;;;;;5034088;28;20156;-72
2021/03/18 07:18:39;;;;;;;29.15;17.92;;;179.50;1817.60;;;;;;5033581;28;20021;-64
2021/03/18 07:21:12;;;;;;;28.48;18.50;;;179.50;1843.20;;;;;;5033901;28;20026;-64
2021/03/18 07:23:41;;;;;;;27.73;17.10;;;179.50;1817.60;;;;;;5033658;28;20025;-64
2021/03/18 07:26:23;;;;;;;22.08;14.88;;;179.50;1817.60;;;;;;5033120;28;20407;-64
2021/03/18 07:29:11;;;;;;;29.35;19.23;;;179.50;1817.60;;;;;;5031987;28;20044;-64
2021/03/18 07:31:38;;;;;;;34.25;22.08;;;179.50;1817.60;;;;;;5030185;28;20071;-72
2021/03/18 07:34:06;;;;;;;28.73;18.83;;;179.50;1843.20;;;;;;5032301;28;20025;-71
2021/03/18 07:36:32;;;;;;;30.48;18.55;;;179.50;1843.20;;;;;;5028654;28;20022;-64
2021/03/18 07:38:57;;;;;;;31.27;17.73;;;179.50;1817.60;;;;;;5031462;28;20528;-64
2021/03/18 07:41:24;;;;;;;28.02;17.75;;;179.50;1817.60;;;;;;5031297;28;20013;-64
2021/03/18 07:43:50;;;;;;;23.20;15.57;;;179.50;1817.60;;;;;;5031190;28;20109;-64
2021/03/18 07:46:19;;;;;;;31.40;18.05;;;179.50;1817.60;;;;;;5029116;28;20184;-64
2021/03/18 07:49:09;;;;;;;37.08;18.88;;;179.50;1817.60;;;;;;5032603;28;20087;-67
2021/03/18 07:51:38;;;;;;;34.28;18.42;;;179.50;1817.60;;;;;;5032383;28;20123;-69
2021/03/18 07:54:05;;;;;;;30.08;17.05;;;179.50;1817.60;;;;;;5029409;28;20167;-64
2021/03/18 07:56:31;;;;;;;29.05;16.98;;;179.50;1817.60;;;;;;5026241;28;20021;-66
2021/03/18 07:59:06;;;;;;;24.95;16.20;;;179.50;1817.60;;;;;;5031578;28;20032;-64
2021/03/18 08:01:32;;;;;;;31.20;19.00;;;179.40;1817.60;;;;;;5031407;28;20160;-65
2021/03/18 08:04:03;;;;;;;37.38;22.52;;;179.40;1843.20;;;;;;5030817;28;20053;-65
2021/03/18 08:06:44;;;;;;;37.10;23.13;;;179.40;1843.20;;;;;;5032478;28;20029;-65
2021/03/18 08:09:14;;;;;;;31.88;20.05;;;179.40;1843.20;;;;;;5027429;28;20486;-69
2021/03/18 08:11:45;;;;;;;26.67;17.50;;;179.40;1843.20;;;;;;5030194;28;20025;-64
2021/03/18 08:14:14;;;;;;;24.33;17.05;;;179.40;1843.20;;;;;;5036102;28;20029;-69
2021/03/18 08:16:40;;;;;;;23.80;17.10;;;179.30;1843.20;;;;;;5035606;28;20028;-65
2021/03/18 08:19:11;;;;;;;28.70;18.42;;;179.30;1843.20;;;;;;5035977;28;20029;-63
2021/03/18 08:21:42;;;;;;;25.38;16.60;;;179.30;1868.80;;;;;;5035641;28;20068;-69
2021/03/18 08:24:23;;;;;;;34.53;20.10;;;179.30;1868.80;;;;;;5049117;28;20045;-69
2021/03/18 08:27:06;;;;;;;38.92;20.38;;;179.30;1868.80;;;;;;5046429;28;20127;-63
2021/03/18 08:29:44;;;;;;;33.28;18.80;;;179.30;1868.80;;;;;;5035254;28;20419;-64
2021/03/18 08:32:25;;;;;;;32.70;18.27;;;179.20;1868.80;;;;;;5035510;28;20025;-64
2021/03/18 08:34:55;;;;;;;33.92;20.00;;;179.20;1868.80;;;;;;5035664;28;20426;-64
2021/03/18 08:37:41;;;;;;;35.35;21.25;;;179.20;1868.80;;;;;;5036132;28;20521;-63
2021/03/18 08:40:31;;;;;;;34.78;22.33;;;179.20;1868.80;;;;;;5036377;28;20021;-63
2021/03/18 08:43:03;;;;;;;29.27;19.45;;;179.20;1868.80;;;;;;5027360;28;20036;-63
2021/03/18 08:45:30;;;;;;;30.45;18.98;;;179.20;1894.40;;;;;;5035153;28;20025;-63
2021/03/18 08:48:06;;;;;;;34.05;19.85;;;154.50;1894.40;;;;;;5036002;28;20033;-69
2021/03/18 08:50:31;;;;;;;37.10;19.48;;;154.50;1894.40;;;;;;5018087;28;20368;-65
2021/03/18 08:52:58;;;;;;;38.28;21.42;;;154.50;1894.40;;;;;;5034266;28;20029;-71
2021/03/18 08:55:40;;;;;;;38.55;21.00;;;154.50;1894.40;;;;;;5033715;28;20084;-64
2021/03/18 08:58:07;;;;;;;37.88;21.70;;;154.50;1894.40;;;;;;5034431;28;20026;-63
2021/03/18 09:00:34;;;;;;;33.88;20.83;;;154.50;1894.40;;;;;;5032666;28;20036;-62
2021/03/18 09:03:01;;;;;;;39.22;22.02;;;179.20;1894.40;;;;;;5034586;28;20023;-62
2021/03/18 09:05:27;;;;;;;38.40;21.13;;;154.50;1894.40;;;;;;5034935;28;20980;-71
2021/03/18 09:08:01;;;;;;;35.88;20.38;;;154.50;1894.40;;;;;;5032312;28;20076;-63
2021/03/18 09:10:28;;;;;;;35.38;20.45;;;179.20;1894.40;;;;;;5034636;28;20391;-62
2021/03/18 09:13:03;;;;;;;32.28;19.48;;;179.20;1894.40;;;;;;5034735;28;20029;-63
2021/03/18 09:15:41;;;;;;;38.78;20.63;;;179.20;1920.00;;;;;;5033586;28;20073;-65
2021/03/18 09:18:26;;;;;;;33.03;19.58;;;179.20;1920.00;;;;;;5034829;28;20494;-64
2021/03/18 09:21:00;;;;;;;;;;;179.30;1894.40;;;;;;5034339;28;20032;-69
2021/03/18 09:23:28;;;;;;;35.28;20.48;;;179.30;1894.40;;;;;;5030944;28;19912;-71
2021/03/18 09:25:59;;;;;;;35.83;22.23;;;179.30;1920.00;;;;;;5034579;28;20049;-72
2021/03/18 09:28:30;;;;;;;35.97;22.05;;;179.30;1920.00;;;;;;5032092;28;20036;-68
2021/03/18 09:30:56;;;;;;;33.67;20.17;;;179.40;1920.00;;;;;;5034356;28;20025;-66
2021/03/18 09:33:26;;;;;;;33.20;18.88;;;179.40;1920.00;;;;;;5034550;28;20025;-70
2021/03/18 09:35:54;;;;;;;32.85;18.90;;;179.40;1894.40;;;;;;5034523;28;20041;-66
2021/03/18 09:38:26;;;;;;;29.77;18.05;;;179.40;1894.40;;;;;;5034122;28;20022;-63
2021/03/18 09:40:53;;;;;;;31.88;19.15;;;179.50;1894.40;;;;;;5034731;28;20025;-64
2021/03/18 09:43:21;;;;;;;32.67;20.83;;;179.50;1894.40;;;;;;5034764;28;20083;-64
2021/03/18 09:45:50;;;;;;;30.55;20.05;;;179.60;1894.40;;;;;;5034597;28;20022;-72
2021/03/18 09:48:32;;;;;;;29.60;18.52;;;179.60;1894.40;;;;;;5016210;28;20143;-64
2021/03/18 09:51:06;;;;;;;29.45;17.73;;;179.70;1894.40;;;;;;5034537;28;20022;-64
2021/03/18 09:53:32;;;;;;;31.02;19.45;;;179.80;1894.40;;;;;;5016465;28;20391;-64
2021/03/18 09:56:03;;;;;;;31.55;18.92;;;179.80;1894.40;;;;;;5034520;28;20029;-64
2021/03/18 09:58:29;;;;;;;26.70;17.67;;;179.90;1868.80;;;;;;5033704;28;20026;-71
2021/03/18 10:00:54;;;;;;;26.35;19.10;;;180.00;1868.80;;;;;;5032916;28;20024;-64
2021/03/18 10:03:20;;;;;;;38.40;21.65;;;180.10;1868.80;;;;;;5031632;28;20025;-65
2021/03/18 10:05:46;;;;;;;33.63;20.67;;;180.10;1868.80;;;;;;5032983;28;20022;-65
2021/03/18 10:08:12;;;;;;;29.58;18.95;;;204.80;1843.20;;;;;;5033058;28;20037;-64
2021/03/18 10:10:38;;;;;;;31.83;20.50;;;204.80;1843.20;;;;;;5033078;28;20021;-64
2021/03/18 10:13:03;;;;;;;29.17;19.02;;;204.80;1817.60;;;;;;5032985;28;20022;-64
2021/03/18 10:15:30;;;;;;;30.30;19.85;;;204.80;1843.20;;;;;;5032645;28;20434;-67
2021/03/18 10:17:57;;;;;;;31.15;19.83;;;204.80;1843.20;;;;;;5032755;28;20463;-65
2021/03/18 10:20:32;;;;;;;31.33;20.50;;;204.90;1817.60;;;;;;5032821;28;20044;-64
2021/03/18 10:23:02;;;;;;;34.72;21.35;;;204.90;1843.20;;;;;;5030202;28;20021;-63
2021/03/18 10:25:34;;;;;;;33.75;20.55;;;205.00;1817.60;;;;;;5032689;28;20080;-64
2021/03/18 10:28:11;;;;;;;30.08;19.48;;;205.00;1817.60;;;;;;5030219;28;20041;-66
2021/03/18 10:30:45;;;;;;;26.65;17.85;;;205.10;1817.60;;;;;;5032016;28;20021;-64
2021/03/18 10:33:16;;;;;;;27.52;18.33;;;205.20;1792.00;;;;;;5032805;28;20032;-65
2021/03/18 10:35:45;;;;;;;27.67;19.05;;;205.20;1817.60;;;;;;5032412;28;20793;-66
2021/03/18 10:38:15;;;;;;;27.40;17.60;;;205.20;1792.00;;;;;;5013903;28;20444;-72
2021/03/18 10:40:48;;;;;;;25.48;17.73;;;205.30;1792.00;;;;;;5030744;28;20021;-64
2021/03/18 10:43:26;;;;;;;29.48;19.48;;;205.30;1766.40;;;;;;5033446;28;20026;-66
2021/03/18 10:45:56;;;;;;;30.98;19.67;;;205.30;1766.40;;;;;;5032816;28;20021;-64
2021/03/18 10:48:25;;;;;;;32.83;20.13;;;205.40;1766.40;;;;;;5033623;28;20037;-64
2021/03/18 10:50:52;;;;;;;32.63;19.98;;;205.40;1792.00;;;;;;5033620;28;20400;-64
2021/03/18 10:53:21;;;;;;;33.22;20.13;;;205.50;1766.40;;;;;;5033085;28;20041;-64
2021/03/18 10:55:52;;;;;;;28.95;18.23;;;205.50;1766.40;;;;;;5033350;28;20022;-65
2021/03/18 10:58:21;;;;;;;27.58;18.63;;;205.50;1740.80;;;;;;5033389;28;20033;-65
2021/03/18 11:00:48;;;;;;;27.63;18.27;;;205.60;1740.80;;;;;;5033112;28;20028;-64
2021/03/18 11:03:16;;;;;;;28.90;19.25;;;205.60;1740.80;;;;;;5033219;28;20021;-65
2021/03/18 11:05:45;;;;;;;30.30;17.17;;;205.70;1740.80;;;;;;5031063;28;20104;-66
2021/03/18 11:08:12;;;;;;;31.35;18.48;;;230.40;1715.20;;;;;;5030961;28;20112;-66
2021/03/18 11:10:48;;;;;;;27.15;17.80;;;230.50;1689.60;;;;;;5031713;28;20051;-70
2021/03/18 11:13:29;;;;;;;29.20;19.15;;;230.60;1664.00;;;;;;5029502;28;20025;-72
2021/03/18 11:15:58;;;;;;;31.58;21.13;;;230.70;1638.40;;;;;;5013680;28;20017;-70
2021/03/18 11:18:42;;;;;;;28.90;19.55;;;230.80;1638.40;;;;;;5031806;28;20021;-72
2021/03/18 11:21:34;;;;;;;23.92;16.42;;;230.80;1612.80;;;;;;5031947;28;20363;-68
2021/03/18 11:24:10;;;;;;;27.80;17.58;;;230.90;1612.80;;;;;;5029748;28;20018;-65
2021/03/18 11:26:41;;;;;;;31.90;18.88;;;230.90;1612.80;;;;;;5028622;28;20048;-66
2021/03/18 11:29:17;;;;;;;30.55;17.63;;;231.00;1612.80;;;;;;5031116;28;20095;-65
2021/03/18 11:31:52;;;;;;;24.40;15.73;;;231.00;1587.20;;;;;;5031471;28;20034;-71
2021/03/18 11:34:24;;;;;;;24.13;14.50;;;231.00;1561.60;;;;;;5029401;28;20119;-70
2021/03/18 11:36:54;;;;;;;25.48;15.55;;;231.10;1561.60;;;;;;5031194;28;20033;-71
2021/03/18 11:39:21;;;;;;;23.35;15.98;;;231.10;1561.60;;;;;;5029641;28;20021;-72
2021/03/18 11:41:48;;;;;;;22.80;15.23;;;231.20;1587.20;;;;;;5013695;28;20470;-72
2021/03/18 11:44:14;;;;;;;21.10;13.57;;;231.20;1561.60;;;;;;5031191;28;20033;-65
2021/03/18 11:46:41;;;;;;;19.45;12.63;;;231.20;1536.00;;;;;;5032352;28;20375;-65
2021/03/18 11:49:06;;;;;;;14.05;10.07;;;231.20;1510.40;;;;;;5035636;28;20029;-73
2021/03/18 11:51:32;;;;;;;20.70;12.52;;;231.30;1484.80;;;;;;5035395;28;20021;-73
2021/03/18 11:53:59;;;;;;;19.42;12.70;;;231.30;1484.80;;;;;;5035309;28;20095;-72
2021/03/18 11:56:25;;;;;;;22.77;14.60;;;231.30;1484.80;;;;;;5035325;28;20075;-67
2021/03/18 11:58:51;;;;;;;26.83;16.08;;;256.10;1484.80;;;;;;5034923;28;20082;-68
2021/03/18 12:01:17;;;;;;;24.70;16.83;;;256.20;1484.80;;;;;;5035270;28;20472;-72
2021/03/18 12:03:44;;;;;;;21.13;13.55;;;256.20;1484.80;;;;;;5035060;28;20025;-65
2021/03/18 12:06:10;;;;;;;21.08;13.48;;;256.30;1459.20;;;;;;5035057;28;20617;-67
2021/03/18 12:08:36;;;;;;;17.73;10.85;;;256.50;1484.80;;;;;;5034918;28;20109;-73
2021/03/18 12:11:05;;;;;;;15.93;9.13;;;256.50;1433.60;;;;;;5035120;28;20025;-73
2021/03/18 12:13:32;;;;;;;14.73;9.07;;;256.60;1382.40;;;;;;5034475;28;20029;-67